Impacts METAR Board
IDs:

KATL - Atlanta/Hartsfield-J, GA, US

Updated at: 0700 UTC 24 Sep 2018
Potential Impact None Slight Moderate High
Time 23/19Z 23/20Z 23/21Z 23/22Z 23/23Z 24/00Z 24/01Z 24/02Z 24/03Z 24/04Z 24/05Z 24/06Z 24/07Z
Temp87 89 86 87 86 82 80 80 79 76 76 75 75
Dewpt62 63 62 62 61 61 62 62 62 62 62 64 66
Altim30.05 30.03 30.02 30.02 30.02 30.03 30.04 30.06 30.07 30.08 30.09 30.09 30.08
VIS10 10 10 10 10 10 10 10 10 10 10 10 10
CIG250 250 250 -- -- -- -- -- -- -- 150 130 150
CoverBKNBKNBKNSCTSCTSCTSCTSCTSCTSCTBKNBKNBKN
FltCatVFRVFRVFRVFRVFRVFRVFRVFRVFRVFRVFRVFRVFR
WX--------------------------
WDir150012016015015013012012090110130120
WSpd8 6 8 6 9 4 3 4 6 7 8 6 7
WGst-- -- -- -- -- -- -- -- -- -- -- -- --
Raw hourly METARs
KATL 231852Z 15008KT 090V170 10SM SCT055 BKN250 31/17 A3005 RMK AO2 SLP166 T03060167 $
KATL 231952Z VRB06KT 10SM SCT055 BKN250 32/17 A3003 RMK AO2 SLP157 T03170172 $
KATL 232052Z 12008KT 10SM SCT060 SCT080 BKN250 30/17 A3002 RMK AO2 SLP153 MDT CU N-E & DSNT W T03000167 56021 $
KATL 232152Z 16006KT 10SM FEW065 SCT080 SCT250 31/17 A3002 RMK AO2 SLP154 T03060167 $
KATL 232252Z 15009KT 10SM FEW060 FEW085 SCT250 30/16 A3002 RMK AO2 SLP157 T03000161 $
KATL 232352Z 15004KT 10SM FEW085 SCT180 SCT250 28/16 A3003 RMK AO2 SLP160 T02780161 10322 20278 53004 $
KATL 240052Z 13003KT 10SM SCT180 SCT250 27/17 A3004 RMK AO2 SLP164 T02670167 $
KATL 240152Z 12004KT 10SM FEW180 SCT250 27/17 A3006 RMK AO2 SLP169 T02670167 $
KATL 240252Z 12006KT 10SM FEW180 SCT250 26/17 A3007 RMK AO2 SLP171 T02610167 51013 $
KATL 240352Z 09007KT 10SM FEW110 SCT180 SCT250 24/17 A3008 RMK AO2 SLP174 T02440167 $
KATL 240452Z 11008KT 10SM FEW110 BKN150 BKN250 24/17 A3009 RMK AO2 SLP178 T02440167 403220206 $
KATL 240552Z 13006KT 10SM FEW100 BKN130 24/18 A3009 RMK AO2 SLP177 T02390178 10278 20239 50005 $
KATL 240652Z 12007KT 10SM FEW060 SCT120 BKN150 24/19 A3008 RMK AO2 SLP175 T02390189 $



Page loaded:  07:10 UTC  |   12:10 AM Pacific  |   01:10 AM Mountain  |   02:10 AM Central  |   03:10 AM Eastern

 

ADVISORIES

FORECASTS

FORECASTS

OBSERVATIONS

USER TOOLS

ABOUT US